sensor_id;sensor_type;location;lat;lon;timestamp;P1;durP1;ratioP1;P2;durP2;ratioP2
67904;SDS011;54709;43.614;1.576;2024-02-26T00:01:56;22.05;;;7.03;;
67904;SDS011;54709;43.614;1.576;2024-02-26T00:04:21;23.52;;;6.72;;
67904;SDS011;54709;43.614;1.576;2024-02-26T00:06:47;21.10;;;7.15;;
67904;SDS011;54709;43.614;1.576;2024-02-26T00:09:13;24.05;;;6.80;;
67904;SDS011;54709;43.614;1.576;2024-02-26T00:11:38;21.77;;;7.43;;
67904;SDS011;54709;43.614;1.576;2024-02-26T00:14:04;29.00;;;7.22;;
67904;SDS011;54709;43.614;1.576;2024-02-26T00:16:29;16.23;;;6.25;;
67904;SDS011;54709;43.614;1.576;2024-02-26T00:18:55;26.10;;;7.47;;
67904;SDS011;54709;43.614;1.576;2024-02-26T00:21:20;20.00;;;6.57;;
67904;SDS011;54709;43.614;1.576;2024-02-26T00:23:46;24.13;;;6.55;;
67904;SDS011;54709;43.614;1.576;2024-02-26T00:26:11;25.00;;;7.30;;
67904;SDS011;54709;43.614;1.576;2024-02-26T00:28:37;23.92;;;7.28;;
67904;SDS011;54709;43.614;1.576;2024-02-26T00:31:02;25.42;;;6.22;;
67904;SDS011;54709;43.614;1.576;2024-02-26T00:33:28;27.17;;;7.95;;
67904;SDS011;54709;43.614;1.576;2024-02-26T00:35:53;20.60;;;7.60;;
67904;SDS011;54709;43.614;1.576;2024-02-26T00:38:19;36.05;;;9.80;;
67904;SDS011;54709;43.614;1.576;2024-02-26T00:40:44;28.88;;;8.45;;
67904;SDS011;54709;43.614;1.576;2024-02-26T00:43:10;29.70;;;8.52;;
67904;SDS011;54709;43.614;1.576;2024-02-26T00:45:35;26.80;;;10.40;;
67904;SDS011;54709;43.614;1.576;2024-02-26T00:48:00;26.90;;;10.00;;
67904;SDS011;54709;43.614;1.576;2024-02-26T00:50:29;22.10;;;8.45;;
67904;SDS011;54709;43.614;1.576;2024-02-26T00:52:55;25.25;;;9.90;;
67904;SDS011;54709;43.614;1.576;2024-02-26T00:55:20;36.88;;;12.35;;
67904;SDS011;54709;43.614;1.576;2024-02-26T00:57:46;31.23;;;11.55;;
67904;SDS011;54709;43.614;1.576;2024-02-26T01:00:11;28.77;;;10.25;;
67904;SDS011;54709;43.614;1.576;2024-02-26T01:02:37;24.77;;;8.63;;
67904;SDS011;54709;43.614;1.576;2024-02-26T01:05:03;28.27;;;11.05;;
67904;SDS011;54709;43.614;1.576;2024-02-26T01:07:31;26.48;;;10.10;;
67904;SDS011;54709;43.614;1.576;2024-02-26T01:10:00;35.78;;;11.60;;
67904;SDS011;54709;43.614;1.576;2024-02-26T01:12:26;38.20;;;9.93;;
67904;SDS011;54709;43.614;1.576;2024-02-26T01:14:51;32.00;;;9.23;;
67904;SDS011;54709;43.614;1.576;2024-02-26T01:17:17;28.25;;;9.70;;
67904;SDS011;54709;43.614;1.576;2024-02-26T01:19:42;32.75;;;10.27;;
67904;SDS011;54709;43.614;1.576;2024-02-26T01:22:08;28.50;;;9.50;;
67904;SDS011;54709;43.614;1.576;2024-02-26T01:24:33;28.52;;;8.27;;
67904;SDS011;54709;43.614;1.576;2024-02-26T01:26:58;33.20;;;8.90;;
67904;SDS011;54709;43.614;1.576;2024-02-26T01:29:24;32.42;;;8.43;;
67904;SDS011;54709;43.614;1.576;2024-02-26T01:31:49;36.65;;;8.02;;
67904;SDS011;54709;43.614;1.576;2024-02-26T01:34:14;35.33;;;9.27;;
67904;SDS011;54709;43.614;1.576;2024-02-26T01:36:40;32.40;;;8.27;;
67904;SDS011;54709;43.614;1.576;2024-02-26T01:39:06;30.08;;;8.38;;
67904;SDS011;54709;43.614;1.576;2024-02-26T01:41:31;28.70;;;8.13;;
67904;SDS011;54709;43.614;1.576;2024-02-26T01:43:56;32.50;;;7.70;;
67904;SDS011;54709;43.614;1.576;2024-02-26T01:46:22;27.52;;;7.68;;
67904;SDS011;54709;43.614;1.576;2024-02-26T01:48:47;35.70;;;7.45;;
67904;SDS011;54709;43.614;1.576;2024-02-26T01:51:15;31.55;;;8.55;;
67904;SDS011;54709;43.614;1.576;2024-02-26T01:53:40;34.00;;;7.45;;
67904;SDS011;54709;43.614;1.576;2024-02-26T01:56:06;32.72;;;7.35;;
67904;SDS011;54709;43.614;1.576;2024-02-26T01:58:32;30.85;;;7.60;;
67904;SDS011;54709;43.614;1.576;2024-02-26T02:00:59;26.50;;;6.18;;
67904;SDS011;54709;43.614;1.576;2024-02-26T02:03:24;28.55;;;7.25;;
67904;SDS011;54709;43.614;1.576;2024-02-26T02:05:50;33.35;;;7.57;;
67904;SDS011;54709;43.614;1.576;2024-02-26T02:08:15;39.58;;;8.32;;
67904;SDS011;54709;43.614;1.576;2024-02-26T02:10:44;26.00;;;7.53;;
67904;SDS011;54709;43.614;1.576;2024-02-26T02:13:11;26.38;;;8.07;;
67904;SDS011;54709;43.614;1.576;2024-02-26T02:15:36;28.65;;;7.22;;
67904;SDS011;54709;43.614;1.576;2024-02-26T02:18:02;28.83;;;5.68;;
67904;SDS011;54709;43.614;1.576;2024-02-26T02:20:33;19.98;;;6.00;;
67904;SDS011;54709;43.614;1.576;2024-02-26T02:22:59;29.48;;;6.20;;
67904;SDS011;54709;43.614;1.576;2024-02-26T02:25:25;34.53;;;5.90;;
67904;SDS011;54709;43.614;1.576;2024-02-26T02:27:50;32.95;;;6.22;;
67904;SDS011;54709;43.614;1.576;2024-02-26T02:30:17;26.02;;;6.32;;
67904;SDS011;54709;43.614;1.576;2024-02-26T02:32:42;26.60;;;5.95;;
67904;SDS011;54709;43.614;1.576;2024-02-26T02:35:08;33.25;;;5.93;;
67904;SDS011;54709;43.614;1.576;2024-02-26T02:37:33;33.17;;;5.78;;
67904;SDS011;54709;43.614;1.576;2024-02-26T02:39:59;31.65;;;5.57;;
67904;SDS011;54709;43.614;1.576;2024-02-26T02:42:25;29.55;;;5.38;;
67904;SDS011;54709;43.614;1.576;2024-02-26T02:44:50;28.95;;;6.05;;
67904;SDS011;54709;43.614;1.576;2024-02-26T02:47:16;29.10;;;5.60;;
67904;SDS011;54709;43.614;1.576;2024-02-26T02:49:41;22.20;;;5.72;;
67904;SDS011;54709;43.614;1.576;2024-02-26T02:52:06;24.58;;;5.50;;
67904;SDS011;54709;43.614;1.576;2024-02-26T02:54:32;25.23;;;5.30;;
67904;SDS011;54709;43.614;1.576;2024-02-26T02:56:57;28.63;;;5.35;;
67904;SDS011;54709;43.614;1.576;2024-02-26T02:59:23;28.13;;;4.60;;
67904;SDS011;54709;43.614;1.576;2024-02-26T03:01:48;24.20;;;4.32;;
67904;SDS011;54709;43.614;1.576;2024-02-26T03:04:14;29.10;;;4.63;;
67904;SDS011;54709;43.614;1.576;2024-02-26T03:06:39;22.63;;;5.20;;
67904;SDS011;54709;43.614;1.576;2024-02-26T03:09:05;39.38;;;4.78;;
67904;SDS011;54709;43.614;1.576;2024-02-26T03:11:30;33.28;;;3.88;;
67904;SDS011;54709;43.614;1.576;2024-02-26T03:13:55;26.65;;;4.43;;
67904;SDS011;54709;43.614;1.576;2024-02-26T03:16:21;28.98;;;5.40;;
67904;SDS011;54709;43.614;1.576;2024-02-26T03:18:46;24.67;;;4.30;;
67904;SDS011;54709;43.614;1.576;2024-02-26T03:21:11;35.67;;;4.43;;
67904;SDS011;54709;43.614;1.576;2024-02-26T03:23:37;28.38;;;3.42;;
67904;SDS011;54709;43.614;1.576;2024-02-26T03:26:05;26.58;;;3.38;;
67904;SDS011;54709;43.614;1.576;2024-02-26T03:28:30;24.73;;;3.28;;
67904;SDS011;54709;43.614;1.576;2024-02-26T03:30:58;24.17;;;3.67;;
67904;SDS011;54709;43.614;1.576;2024-02-26T03:33:24;29.85;;;3.35;;
67904;SDS011;54709;43.614;1.576;2024-02-26T03:35:49;20.10;;;2.80;;
67904;SDS011;54709;43.614;1.576;2024-02-26T03:38:15;21.27;;;3.00;;
67904;SDS011;54709;43.614;1.576;2024-02-26T03:40:40;21.27;;;2.60;;
67904;SDS011;54709;43.614;1.576;2024-02-26T03:43:05;25.80;;;3.28;;
67904;SDS011;54709;43.614;1.576;2024-02-26T03:45:32;22.00;;;3.00;;
67904;SDS011;54709;43.614;1.576;2024-02-26T03:47:58;23.48;;;2.83;;
67904;SDS011;54709;43.614;1.576;2024-02-26T03:50:23;18.83;;;3.03;;
67904;SDS011;54709;43.614;1.576;2024-02-26T03:52:49;18.17;;;2.70;;
67904;SDS011;54709;43.614;1.576;2024-02-26T03:55:14;25.95;;;3.15;;
67904;SDS011;54709;43.614;1.576;2024-02-26T03:57:39;17.27;;;2.70;;
67904;SDS011;54709;43.614;1.576;2024-02-26T04:00:05;22.90;;;2.47;;
67904;SDS011;54709;43.614;1.576;2024-02-26T04:02:31;19.00;;;2.63;;
67904;SDS011;54709;43.614;1.576;2024-02-26T04:04:56;21.77;;;3.28;;
67904;SDS011;54709;43.614;1.576;2024-02-26T04:07:22;25.98;;;3.30;;
67904;SDS011;54709;43.614;1.576;2024-02-26T04:09:47;15.68;;;2.35;;
67904;SDS011;54709;43.614;1.576;2024-02-26T04:12:12;20.75;;;3.00;;
67904;SDS011;54709;43.614;1.576;2024-02-26T04:14:38;24.70;;;3.13;;
67904;SDS011;54709;43.614;1.576;2024-02-26T04:17:04;20.08;;;3.03;;
67904;SDS011;54709;43.614;1.576;2024-02-26T04:19:29;24.02;;;3.15;;
67904;SDS011;54709;43.614;1.576;2024-02-26T04:21:54;17.63;;;2.40;;
67904;SDS011;54709;43.614;1.576;2024-02-26T04:24:20;17.05;;;2.50;;
67904;SDS011;54709;43.614;1.576;2024-02-26T04:26:45;16.60;;;2.63;;
67904;SDS011;54709;43.614;1.576;2024-02-26T04:29:11;23.35;;;2.47;;
67904;SDS011;54709;43.614;1.576;2024-02-26T04:31:37;19.42;;;2.40;;
67904;SDS011;54709;43.614;1.576;2024-02-26T04:34:03;20.65;;;2.53;;
67904;SDS011;54709;43.614;1.576;2024-02-26T04:36:28;13.55;;;2.10;;
67904;SDS011;54709;43.614;1.576;2024-02-26T04:38:53;20.25;;;2.53;;
67904;SDS011;54709;43.614;1.576;2024-02-26T04:41:21;15.82;;;2.40;;
67904;SDS011;54709;43.614;1.576;2024-02-26T04:43:47;17.63;;;2.47;;
67904;SDS011;54709;43.614;1.576;2024-02-26T04:46:12;20.58;;;2.55;;
67904;SDS011;54709;43.614;1.576;2024-02-26T04:48:38;13.95;;;2.20;;
67904;SDS011;54709;43.614;1.576;2024-02-26T04:51:03;19.70;;;2.58;;
67904;SDS011;54709;43.614;1.576;2024-02-26T04:53:29;19.75;;;2.10;;
67904;SDS011;54709;43.614;1.576;2024-02-26T04:55:55;15.73;;;2.13;;
67904;SDS011;54709;43.614;1.576;2024-02-26T04:58:20;12.73;;;1.92;;
67904;SDS011;54709;43.614;1.576;2024-02-26T05:00:45;13.77;;;2.40;;
67904;SDS011;54709;43.614;1.576;2024-02-26T05:03:11;13.95;;;2.05;;
67904;SDS011;54709;43.614;1.576;2024-02-26T05:05:40;11.73;;;2.00;;
67904;SDS011;54709;43.614;1.576;2024-02-26T05:08:06;11.18;;;1.65;;
67904;SDS011;54709;43.614;1.576;2024-02-26T05:10:32;11.10;;;1.80;;
67904;SDS011;54709;43.614;1.576;2024-02-26T05:12:58;17.38;;;1.95;;
67904;SDS011;54709;43.614;1.576;2024-02-26T05:15:23;11.02;;;1.55;;
67904;SDS011;54709;43.614;1.576;2024-02-26T05:17:49;16.73;;;1.73;;
67904;SDS011;54709;43.614;1.576;2024-02-26T05:20:14;10.68;;;1.55;;
67904;SDS011;54709;43.614;1.576;2024-02-26T05:22:39;11.35;;;1.60;;
67904;SDS011;54709;43.614;1.576;2024-02-26T05:25:05;15.93;;;1.85;;
67904;SDS011;54709;43.614;1.576;2024-02-26T05:27:30;14.23;;;1.88;;
67904;SDS011;54709;43.614;1.576;2024-02-26T05:29:56;13.25;;;2.00;;
67904;SDS011;54709;43.614;1.576;2024-02-26T05:32:21;9.65;;;1.90;;
67904;SDS011;54709;43.614;1.576;2024-02-26T05:34:47;15.63;;;2.55;;
67904;SDS011;54709;43.614;1.576;2024-02-26T05:37:12;10.25;;;1.77;;
67904;SDS011;54709;43.614;1.576;2024-02-26T05:39:37;9.10;;;1.50;;
67904;SDS011;54709;43.614;1.576;2024-02-26T05:42:04;14.25;;;2.17;;
67904;SDS011;54709;43.614;1.576;2024-02-26T05:44:30;10.98;;;2.03;;
67904;SDS011;54709;43.614;1.576;2024-02-26T05:46:55;8.82;;;1.83;;
67904;SDS011;54709;43.614;1.576;2024-02-26T05:49:21;12.45;;;1.98;;
67904;SDS011;54709;43.614;1.576;2024-02-26T05:51:47;11.27;;;1.85;;
67904;SDS011;54709;43.614;1.576;2024-02-26T05:54:12;11.45;;;2.08;;
67904;SDS011;54709;43.614;1.576;2024-02-26T05:56:38;16.17;;;2.10;;
67904;SDS011;54709;43.614;1.576;2024-02-26T05:59:04;12.25;;;2.42;;
67904;SDS011;54709;43.614;1.576;2024-02-26T06:01:30;13.85;;;1.80;;
67904;SDS011;54709;43.614;1.576;2024-02-26T06:03:55;12.13;;;1.70;;
67904;SDS011;54709;43.614;1.576;2024-02-26T06:06:21;9.70;;;1.55;;
67904;SDS011;54709;43.614;1.576;2024-02-26T06:08:48;9.82;;;2.03;;
67904;SDS011;54709;43.614;1.576;2024-02-26T06:11:14;7.70;;;1.75;;
67904;SDS011;54709;43.614;1.576;2024-02-26T06:13:39;9.77;;;1.63;;
67904;SDS011;54709;43.614;1.576;2024-02-26T06:16:05;10.25;;;1.60;;
67904;SDS011;54709;43.614;1.576;2024-02-26T06:18:30;8.93;;;1.60;;
67904;SDS011;54709;43.614;1.576;2024-02-26T06:20:55;10.25;;;1.90;;
67904;SDS011;54709;43.614;1.576;2024-02-26T06:23:21;15.25;;;2.15;;
67904;SDS011;54709;43.614;1.576;2024-02-26T06:25:46;12.20;;;1.83;;
67904;SDS011;54709;43.614;1.576;2024-02-26T06:28:13;9.80;;;1.90;;
67904;SDS011;54709;43.614;1.576;2024-02-26T06:30:38;6.72;;;1.60;;
67904;SDS011;54709;43.614;1.576;2024-02-26T06:33:03;10.10;;;1.50;;
67904;SDS011;54709;43.614;1.576;2024-02-26T06:35:29;8.30;;;1.50;;
67904;SDS011;54709;43.614;1.576;2024-02-26T06:37:54;7.15;;;1.20;;
67904;SDS011;54709;43.614;1.576;2024-02-26T06:40:20;6.05;;;1.40;;
67904;SDS011;54709;43.614;1.576;2024-02-26T06:42:46;12.23;;;1.63;;
67904;SDS011;54709;43.614;1.576;2024-02-26T06:45:11;9.88;;;1.50;;
67904;SDS011;54709;43.614;1.576;2024-02-26T06:47:36;5.63;;;1.15;;
67904;SDS011;54709;43.614;1.576;2024-02-26T06:50:02;8.45;;;1.50;;
67904;SDS011;54709;43.614;1.576;2024-02-26T06:52:28;8.40;;;1.50;;
67904;SDS011;54709;43.614;1.576;2024-02-26T06:54:53;9.50;;;1.52;;
67904;SDS011;54709;43.614;1.576;2024-02-26T06:57:19;10.13;;;1.38;;
67904;SDS011;54709;43.614;1.576;2024-02-26T06:59:45;10.68;;;1.50;;
67904;SDS011;54709;43.614;1.576;2024-02-26T07:02:15;5.90;;;1.33;;
67904;SDS011;54709;43.614;1.576;2024-02-26T07:04:41;10.55;;;1.45;;
67904;SDS011;54709;43.614;1.576;2024-02-26T07:07:07;12.70;;;1.40;;
67904;SDS011;54709;43.614;1.576;2024-02-26T07:09:33;6.85;;;1.30;;
67904;SDS011;54709;43.614;1.576;2024-02-26T07:11:58;6.25;;;1.20;;
67904;SDS011;54709;43.614;1.576;2024-02-26T07:14:24;7.30;;;1.38;;
67904;SDS011;54709;43.614;1.576;2024-02-26T07:16:50;7.20;;;1.27;;
67904;SDS011;54709;43.614;1.576;2024-02-26T07:19:15;6.03;;;1.55;;
67904;SDS011;54709;43.614;1.576;2024-02-26T07:21:41;4.63;;;1.08;;
67904;SDS011;54709;43.614;1.576;2024-02-26T07:24:06;6.47;;;1.38;;
67904;SDS011;54709;43.614;1.576;2024-02-26T07:26:31;7.85;;;1.33;;
67904;SDS011;54709;43.614;1.576;2024-02-26T07:28:57;12.43;;;1.90;;
67904;SDS011;54709;43.614;1.576;2024-02-26T07:31:23;5.07;;;1.30;;
67904;SDS011;54709;43.614;1.576;2024-02-26T07:33:48;8.75;;;1.60;;
67904;SDS011;54709;43.614;1.576;2024-02-26T07:36:13;7.88;;;1.60;;
67904;SDS011;54709;43.614;1.576;2024-02-26T07:38:39;8.38;;;1.58;;
67904;SDS011;54709;43.614;1.576;2024-02-26T07:41:04;8.77;;;1.50;;
67904;SDS011;54709;43.614;1.576;2024-02-26T07:43:30;6.03;;;1.60;;
67904;SDS011;54709;43.614;1.576;2024-02-26T07:45:55;7.13;;;1.55;;
67904;SDS011;54709;43.614;1.576;2024-02-26T07:48:20;9.13;;;1.35;;
67904;SDS011;54709;43.614;1.576;2024-02-26T07:50:46;4.65;;;1.23;;
67904;SDS011;54709;43.614;1.576;2024-02-26T07:53:11;10.50;;;1.40;;
67904;SDS011;54709;43.614;1.576;2024-02-26T07:55:37;6.60;;;1.10;;
67904;SDS011;54709;43.614;1.576;2024-02-26T07:58:02;9.23;;;1.35;;
67904;SDS011;54709;43.614;1.576;2024-02-26T08:00:28;4.78;;;1.08;;
67904;SDS011;54709;43.614;1.576;2024-02-26T08:02:53;5.32;;;1.10;;
67904;SDS011;54709;43.614;1.576;2024-02-26T08:05:18;8.20;;;1.30;;
67904;SDS011;54709;43.614;1.576;2024-02-26T08:07:44;9.23;;;1.67;;
67904;SDS011;54709;43.614;1.576;2024-02-26T08:10:09;6.22;;;1.50;;
67904;SDS011;54709;43.614;1.576;2024-02-26T08:12:36;7.43;;;1.33;;
67904;SDS011;54709;43.614;1.576;2024-02-26T08:15:01;5.63;;;1.40;;
67904;SDS011;54709;43.614;1.576;2024-02-26T08:17:27;6.78;;;1.52;;
67904;SDS011;54709;43.614;1.576;2024-02-26T08:19:53;6.82;;;1.58;;
67904;SDS011;54709;43.614;1.576;2024-02-26T08:22:18;7.82;;;1.20;;
67904;SDS011;54709;43.614;1.576;2024-02-26T08:24:43;7.15;;;1.77;;
67904;SDS011;54709;43.614;1.576;2024-02-26T08:27:09;10.13;;;1.42;;
67904;SDS011;54709;43.614;1.576;2024-02-26T08:29:34;7.45;;;1.85;;
67904;SDS011;54709;43.614;1.576;2024-02-26T08:32:00;7.38;;;1.75;;
67904;SDS011;54709;43.614;1.576;2024-02-26T08:34:25;7.22;;;1.40;;
67904;SDS011;54709;43.614;1.576;2024-02-26T08:36:51;6.93;;;1.98;;
67904;SDS011;54709;43.614;1.576;2024-02-26T08:39:16;7.40;;;1.92;;
67904;SDS011;54709;43.614;1.576;2024-02-26T08:41:42;10.45;;;1.63;;
67904;SDS011;54709;43.614;1.576;2024-02-26T08:44:10;4.55;;;1.50;;
67904;SDS011;54709;43.614;1.576;2024-02-26T08:46:36;9.68;;;1.98;;
67904;SDS011;54709;43.614;1.576;2024-02-26T08:49:02;6.22;;;1.52;;
67904;SDS011;54709;43.614;1.576;2024-02-26T08:51:27;7.65;;;2.00;;
67904;SDS011;54709;43.614;1.576;2024-02-26T08:53:52;4.75;;;1.70;;
67904;SDS011;54709;43.614;1.576;2024-02-26T08:56:19;4.93;;;1.40;;
67904;SDS011;54709;43.614;1.576;2024-02-26T08:58:46;6.03;;;1.67;;
67904;SDS011;54709;43.614;1.576;2024-02-26T09:01:13;10.00;;;2.00;;
67904;SDS011;54709;43.614;1.576;2024-02-26T09:03:39;4.55;;;1.45;;
67904;SDS011;54709;43.614;1.576;2024-02-26T09:06:05;6.90;;;1.40;;
67904;SDS011;54709;43.614;1.576;2024-02-26T09:08:31;4.72;;;1.50;;
67904;SDS011;54709;43.614;1.576;2024-02-26T09:10:57;4.38;;;1.48;;
67904;SDS011;54709;43.614;1.576;2024-02-26T09:13:22;5.53;;;1.40;;
67904;SDS011;54709;43.614;1.576;2024-02-26T09:15:48;9.73;;;1.70;;
67904;SDS011;54709;43.614;1.576;2024-02-26T09:18:13;8.20;;;1.85;;
67904;SDS011;54709;43.614;1.576;2024-02-26T09:20:39;5.82;;;1.52;;
67904;SDS011;54709;43.614;1.576;2024-02-26T09:23:05;10.63;;;1.90;;
67904;SDS011;54709;43.614;1.576;2024-02-26T09:25:30;6.03;;;1.35;;
67904;SDS011;54709;43.614;1.576;2024-02-26T09:27:56;6.72;;;1.38;;
67904;SDS011;54709;43.614;1.576;2024-02-26T09:30:21;7.97;;;1.63;;
67904;SDS011;54709;43.614;1.576;2024-02-26T09:32:47;6.13;;;1.60;;
67904;SDS011;54709;43.614;1.576;2024-02-26T09:35:13;5.63;;;1.30;;
67904;SDS011;54709;43.614;1.576;2024-02-26T09:37:38;6.70;;;1.83;;
67904;SDS011;54709;43.614;1.576;2024-02-26T09:40:04;6.28;;;1.42;;
67904;SDS011;54709;43.614;1.576;2024-02-26T09:42:31;7.95;;;1.50;;
67904;SDS011;54709;43.614;1.576;2024-02-26T09:44:59;8.75;;;1.60;;
67904;SDS011;54709;43.614;1.576;2024-02-26T09:47:26;5.05;;;1.38;;
67904;SDS011;54709;43.614;1.576;2024-02-26T09:49:53;5.75;;;1.50;;
67904;SDS011;54709;43.614;1.576;2024-02-26T09:52:20;3.92;;;1.35;;
67904;SDS011;54709;43.614;1.576;2024-02-26T09:54:49;6.63;;;1.17;;
67904;SDS011;54709;43.614;1.576;2024-02-26T09:57:15;7.13;;;1.65;;
67904;SDS011;54709;43.614;1.576;2024-02-26T09:59:42;9.88;;;1.75;;
67904;SDS011;54709;43.614;1.576;2024-02-26T10:02:17;4.90;;;1.50;;
67904;SDS011;54709;43.614;1.576;2024-02-26T10:04:43;3.70;;;1.20;;
67904;SDS011;54709;43.614;1.576;2024-02-26T10:07:09;5.72;;;1.20;;
67904;SDS011;54709;43.614;1.576;2024-02-26T10:09:35;5.10;;;1.33;;
67904;SDS011;54709;43.614;1.576;2024-02-26T10:12:01;6.35;;;1.10;;
67904;SDS011;54709;43.614;1.576;2024-02-26T10:14:27;5.78;;;1.23;;
67904;SDS011;54709;43.614;1.576;2024-02-26T10:16:52;3.28;;;1.10;;
67904;SDS011;54709;43.614;1.576;2024-02-26T10:19:28;8.00;;;1.25;;
67904;SDS011;54709;43.614;1.576;2024-02-26T10:21:57;3.25;;;1.05;;
67904;SDS011;54709;43.614;1.576;2024-02-26T10:24:27;5.05;;;1.25;;
67904;SDS011;54709;43.614;1.576;2024-02-26T10:26:56;2.90;;;1.00;;
67904;SDS011;54709;43.614;1.576;2024-02-26T10:29:23;5.15;;;1.08;;
67904;SDS011;54709;43.614;1.576;2024-02-26T10:31:52;5.47;;;1.15;;
67904;SDS011;54709;43.614;1.576;2024-02-26T10:34:18;3.22;;;1.00;;
67904;SDS011;54709;43.614;1.576;2024-02-26T10:36:44;2.80;;;0.98;;
67904;SDS011;54709;43.614;1.576;2024-02-26T10:39:09;5.78;;;1.20;;
67904;SDS011;54709;43.614;1.576;2024-02-26T10:41:37;6.65;;;1.30;;
67904;SDS011;54709;43.614;1.576;2024-02-26T10:44:03;5.03;;;1.20;;
67904;SDS011;54709;43.614;1.576;2024-02-26T10:46:28;3.92;;;1.00;;
67904;SDS011;54709;43.614;1.576;2024-02-26T10:48:53;5.10;;;1.30;;
67904;SDS011;54709;43.614;1.576;2024-02-26T10:51:29;4.28;;;1.27;;
67904;SDS011;54709;43.614;1.576;2024-02-26T10:53:56;2.90;;;0.85;;
67904;SDS011;54709;43.614;1.576;2024-02-26T10:56:27;3.55;;;1.02;;
67904;SDS011;54709;43.614;1.576;2024-02-26T10:58:57;3.38;;;1.20;;
67904;SDS011;54709;43.614;1.576;2024-02-26T11:01:23;7.35;;;1.65;;
67904;SDS011;54709;43.614;1.576;2024-02-26T11:03:50;5.35;;;1.30;;
67904;SDS011;54709;43.614;1.576;2024-02-26T11:06:16;4.47;;;1.30;;
67904;SDS011;54709;43.614;1.576;2024-02-26T11:08:43;2.95;;;1.00;;
67904;SDS011;54709;43.614;1.576;2024-02-26T11:11:08;5.63;;;1.42;;
67904;SDS011;54709;43.614;1.576;2024-02-26T11:13:34;4.80;;;1.20;;
67904;SDS011;54709;43.614;1.576;2024-02-26T11:16:04;8.15;;;0.90;;
67904;SDS011;54709;43.614;1.576;2024-02-26T11:18:29;4.00;;;1.05;;
67904;SDS011;54709;43.614;1.576;2024-02-26T11:20:55;4.65;;;1.00;;
67904;SDS011;54709;43.614;1.576;2024-02-26T11:23:22;4.72;;;0.80;;
67904;SDS011;54709;43.614;1.576;2024-02-26T11:25:49;4.15;;;1.10;;
67904;SDS011;54709;43.614;1.576;2024-02-26T11:28:16;3.42;;;1.23;;
67904;SDS011;54709;43.614;1.576;2024-02-26T11:30:44;3.50;;;1.00;;
67904;SDS011;54709;43.614;1.576;2024-02-26T11:33:11;2.83;;;0.90;;
67904;SDS011;54709;43.614;1.576;2024-02-26T11:35:37;4.90;;;1.05;;
67904;SDS011;54709;43.614;1.576;2024-02-26T11:38:03;3.33;;;0.80;;
67904;SDS011;54709;43.614;1.576;2024-02-26T11:40:29;3.33;;;1.20;;
67904;SDS011;54709;43.614;1.576;2024-02-26T11:42:56;3.90;;;1.13;;
67904;SDS011;54709;43.614;1.576;2024-02-26T11:50:40;7.72;;;3.30;;
67904;SDS011;54709;43.614;1.576;2024-02-26T11:53:24;5.03;;;1.40;;
67904;SDS011;54709;43.614;1.576;2024-02-26T12:02:05;1.40;;;0.60;;
67904;SDS011;54709;43.614;1.576;2024-02-26T12:04:32;2.42;;;0.88;;
67904;SDS011;54709;43.614;1.576;2024-02-26T12:06:58;2.35;;;1.00;;
67904;SDS011;54709;43.614;1.576;2024-02-26T12:12:02;2.20;;;0.77;;
67904;SDS011;54709;43.614;1.576;2024-02-26T12:14:39;3.60;;;0.90;;
67904;SDS011;54709;43.614;1.576;2024-02-26T12:17:07;4.65;;;0.88;;
67904;SDS011;54709;43.614;1.576;2024-02-26T12:19:34;2.53;;;0.73;;
67904;SDS011;54709;43.614;1.576;2024-02-26T12:22:00;2.60;;;0.95;;
67904;SDS011;54709;43.614;1.576;2024-02-26T12:24:25;2.38;;;0.70;;
67904;SDS011;54709;43.614;1.576;2024-02-26T12:26:51;3.50;;;0.85;;
67904;SDS011;54709;43.614;1.576;2024-02-26T12:29:16;3.17;;;0.82;;
67904;SDS011;54709;43.614;1.576;2024-02-26T12:31:41;2.70;;;0.80;;
67904;SDS011;54709;43.614;1.576;2024-02-26T12:34:07;2.95;;;0.90;;
67904;SDS011;54709;43.614;1.576;2024-02-26T12:36:34;3.50;;;1.10;;
67904;SDS011;54709;43.614;1.576;2024-02-26T12:39:01;2.75;;;1.08;;
67904;SDS011;54709;43.614;1.576;2024-02-26T12:41:30;2.33;;;1.10;;
67904;SDS011;54709;43.614;1.576;2024-02-26T12:43:57;2.28;;;0.60;;
67904;SDS011;54709;43.614;1.576;2024-02-26T12:46:23;3.22;;;0.90;;
67904;SDS011;54709;43.614;1.576;2024-02-26T12:48:48;2.30;;;0.70;;
67904;SDS011;54709;43.614;1.576;2024-02-26T12:51:14;3.05;;;0.70;;
67904;SDS011;54709;43.614;1.576;2024-02-26T12:53:41;2.35;;;0.70;;
67904;SDS011;54709;43.614;1.576;2024-02-26T12:56:07;4.10;;;0.65;;
67904;SDS011;54709;43.614;1.576;2024-02-26T12:58:34;2.50;;;0.60;;
67904;SDS011;54709;43.614;1.576;2024-02-26T13:01:00;2.85;;;0.70;;
67904;SDS011;54709;43.614;1.576;2024-02-26T13:03:26;2.50;;;0.70;;
67904;SDS011;54709;43.614;1.576;2024-02-26T13:05:52;2.10;;;0.80;;
67904;SDS011;54709;43.614;1.576;2024-02-26T13:08:19;3.85;;;0.90;;
67904;SDS011;54709;43.614;1.576;2024-02-26T13:10:45;1.85;;;0.65;;
67904;SDS011;54709;43.614;1.576;2024-02-26T13:13:14;1.85;;;0.68;;
67904;SDS011;54709;43.614;1.576;2024-02-26T13:15:40;1.42;;;0.50;;
67904;SDS011;54709;43.614;1.576;2024-02-26T13:18:11;3.33;;;0.88;;
67904;SDS011;54709;43.614;1.576;2024-02-26T13:20:38;1.90;;;0.80;;
67904;SDS011;54709;43.614;1.576;2024-02-26T13:23:07;2.00;;;0.50;;
67904;SDS011;54709;43.614;1.576;2024-02-26T13:25:35;4.18;;;0.65;;
67904;SDS011;54709;43.614;1.576;2024-02-26T13:28:24;2.90;;;0.90;;
67904;SDS011;54709;43.614;1.576;2024-02-26T13:30:52;3.15;;;0.80;;
67904;SDS011;54709;43.614;1.576;2024-02-26T13:33:21;2.00;;;0.55;;
67904;SDS011;54709;43.614;1.576;2024-02-26T13:35:47;0.93;;;0.40;;
67904;SDS011;54709;43.614;1.576;2024-02-26T13:38:12;0.85;;;0.40;;
67904;SDS011;54709;43.614;1.576;2024-02-26T13:40:38;2.45;;;0.60;;
67904;SDS011;54709;43.614;1.576;2024-02-26T13:43:04;1.42;;;0.50;;
67904;SDS011;54709;43.614;1.576;2024-02-26T13:45:29;2.85;;;0.90;;
67904;SDS011;54709;43.614;1.576;2024-02-26T13:47:59;1.65;;;0.60;;
67904;SDS011;54709;43.614;1.576;2024-02-26T13:50:26;2.25;;;0.70;;
67904;SDS011;54709;43.614;1.576;2024-02-26T13:52:52;1.48;;;0.68;;
67904;SDS011;54709;43.614;1.576;2024-02-26T13:55:19;3.45;;;0.70;;
67904;SDS011;54709;43.614;1.576;2024-02-26T13:57:45;2.53;;;0.60;;
67904;SDS011;54709;43.614;1.576;2024-02-26T14:00:11;2.05;;;0.60;;
67904;SDS011;54709;43.614;1.576;2024-02-26T14:02:37;1.08;;;0.70;;
67904;SDS011;54709;43.614;1.576;2024-02-26T14:05:02;1.33;;;0.70;;
67904;SDS011;54709;43.614;1.576;2024-02-26T14:07:29;3.28;;;0.50;;
67904;SDS011;54709;43.614;1.576;2024-02-26T14:09:57;1.75;;;0.68;;
67904;SDS011;54709;43.614;1.576;2024-02-26T14:12:22;2.13;;;0.57;;
67904;SDS011;54709;43.614;1.576;2024-02-26T14:14:48;1.33;;;0.50;;
67904;SDS011;54709;43.614;1.576;2024-02-26T14:17:13;1.77;;;0.60;;
67904;SDS011;54709;43.614;1.576;2024-02-26T14:19:40;1.63;;;0.57;;
67904;SDS011;54709;43.614;1.576;2024-02-26T14:22:10;2.35;;;0.70;;
67904;SDS011;54709;43.614;1.576;2024-02-26T14:24:36;2.20;;;0.70;;
67904;SDS011;54709;43.614;1.576;2024-02-26T14:27:01;2.20;;;0.70;;
67904;SDS011;54709;43.614;1.576;2024-02-26T14:29:27;1.90;;;0.80;;
67904;SDS011;54709;43.614;1.576;2024-02-26T14:31:53;2.17;;;0.63;;
67904;SDS011;54709;43.614;1.576;2024-02-26T14:34:18;1.63;;;0.70;;
67904;SDS011;54709;43.614;1.576;2024-02-26T14:36:44;1.60;;;0.80;;
67904;SDS011;54709;43.614;1.576;2024-02-26T14:39:09;0.95;;;0.50;;
67904;SDS011;54709;43.614;1.576;2024-02-26T14:41:37;1.73;;;0.52;;
67904;SDS011;54709;43.614;1.576;2024-02-26T14:44:03;1.60;;;0.50;;
67904;SDS011;54709;43.614;1.576;2024-02-26T14:46:29;3.45;;;0.70;;
67904;SDS011;54709;43.614;1.576;2024-02-26T14:48:54;2.20;;;0.65;;